createdAt,value
2022-10-20T14:10:26.683Z,76.70
2022-10-20T14:12:54.280Z,76.80
2022-10-20T14:15:24.035Z,76.10
2022-10-20T14:17:58.819Z,76.40
2022-10-20T14:20:26.247Z,76.10
2022-10-20T14:22:53.905Z,76.10
2022-10-20T14:25:21.327Z,75.30
2022-10-20T14:27:48.254Z,75.40
2022-10-20T14:30:16.382Z,75.90
2022-10-20T14:32:43.832Z,75.50
2022-10-20T14:35:20.676Z,75.30
2022-10-20T14:37:59.532Z,74.40
2022-10-20T14:40:28.353Z,74.50
2022-10-20T14:43:00.020Z,74.30
2022-10-20T14:45:28.060Z,74.80
2022-10-20T14:47:56.084Z,75.40
2022-10-20T14:50:24.607Z,76.30
2022-10-20T14:52:54.026Z,76.40
2022-10-20T14:55:27.343Z,76.60
2022-10-20T14:57:54.229Z,77.10
2022-10-20T15:00:28.547Z,77.40
2022-10-20T15:02:58.822Z,77.60
2022-10-20T15:05:42.250Z,77.70
2022-10-20T15:08:11.110Z,77.70
2022-10-20T15:10:38.257Z,78.00
2022-10-20T15:13:04.996Z,77.80
2022-10-20T15:15:39.075Z,78.00
2022-10-20T15:18:05.735Z,78.10
2022-10-20T15:20:35.235Z,77.90
2022-10-20T15:23:03.862Z,78.20
2022-10-20T15:25:53.677Z,78.30
2022-10-20T15:28:23.624Z,78.10
2022-10-20T15:30:50.498Z,78.30
2022-10-20T15:33:17.426Z,78.80
2022-10-20T15:35:47.739Z,78.40
2022-10-20T15:38:15.103Z,78.70
2022-10-20T15:40:42.184Z,78.50
2022-10-20T15:43:13.281Z,78.50
2022-10-20T15:45:43.041Z,78.70
2022-10-20T15:48:10.133Z,78.60
2022-10-20T15:50:37.891Z,78.60
2022-10-20T15:53:04.879Z,78.60
2022-10-20T15:55:34.278Z,78.60
2022-10-20T15:58:01.417Z,78.70
2022-10-20T16:00:29.125Z,78.90
2022-10-20T16:02:57.361Z,79.30
2022-10-20T16:05:25.929Z,79.40
2022-10-20T16:07:54.156Z,79.50
2022-10-20T16:10:29.363Z,79.30
2022-10-20T16:12:57.976Z,79.30
2022-10-20T16:15:28.896Z,79.20
2022-10-20T16:17:58.041Z,79.30
2022-10-20T16:20:25.038Z,79.60
2022-10-20T16:22:51.735Z,79.30
2022-10-20T16:25:18.523Z,79.50
2022-10-20T16:27:45.289Z,79.50
2022-10-20T16:30:12.056Z,79.70
2022-10-20T16:32:39.039Z,79.90
2022-10-20T16:35:06.375Z,80.20
2022-10-20T16:37:33.397Z,80.30
2022-10-20T16:40:00.303Z,80.40
2022-10-20T16:42:28.472Z,81.10
2022-10-20T16:44:58.265Z,80.90
2022-10-20T16:47:26.293Z,80.80
2022-10-20T16:49:53.534Z,81.00
2022-10-20T16:52:20.344Z,81.00
2022-10-20T16:54:47.182Z,81.00
2022-10-20T16:57:14.025Z,81.30
2022-10-20T16:59:42.545Z,81.50
2022-10-20T17:02:10.181Z,81.50
2022-10-20T17:04:36.946Z,81.70
2022-10-20T17:07:03.891Z,81.50
2022-10-20T17:09:30.628Z,81.70
2022-10-20T17:11:57.335Z,81.80
2022-10-20T17:14:24.059Z,81.90
2022-10-20T17:16:50.744Z,82.10
2022-10-20T17:19:17.518Z,82.00
2022-10-20T17:21:44.461Z,82.30
2022-10-20T17:24:12.596Z,82.20
2022-10-20T17:26:39.781Z,82.40
2022-10-20T17:29:08.417Z,82.40
2022-10-20T17:31:35.484Z,82.70
2022-10-20T17:34:02.437Z,83.00
2022-10-20T17:36:29.883Z,82.30
2022-10-20T17:39:05.865Z,82.40
2022-10-20T17:41:32.885Z,82.50
2022-10-20T17:44:00.843Z,82.10
2022-10-20T17:46:28.036Z,82.10
2022-10-20T17:48:54.850Z,82.10
2022-10-20T17:51:22.820Z,82.20
2022-10-20T17:53:50.641Z,82.30
2022-10-20T17:56:18.816Z,82.60
2022-10-20T17:58:46.590Z,82.60
2022-10-20T18:01:24.055Z,82.50
2022-10-20T18:03:55.899Z,82.70
2022-10-20T18:06:23.541Z,82.40
2022-10-20T18:08:52.594Z,82.40
2022-10-20T18:11:20.831Z,82.40
2022-10-20T18:13:47.578Z,82.60
2022-10-20T18:16:15.867Z,82.50
2022-10-20T18:18:42.796Z,82.70
2022-10-20T18:21:11.459Z,82.60
2022-10-20T18:23:38.482Z,82.60
2022-10-20T18:26:06.707Z,82.50
2022-10-20T18:28:33.653Z,82.50
2022-10-20T18:31:04.590Z,82.40
2022-10-20T18:33:31.378Z,82.30
2022-10-20T18:36:01.257Z,82.30
2022-10-20T18:38:27.961Z,82.40
2022-10-20T18:40:54.661Z,82.50
2022-10-20T18:43:21.326Z,82.50
2022-10-20T18:45:53.883Z,82.50
2022-10-20T18:48:20.589Z,82.60
2022-10-20T18:50:57.495Z,82.60
2022-10-20T18:53:24.570Z,82.70
2022-10-20T18:56:07.810Z,82.70
2022-10-20T18:58:36.581Z,82.60
2022-10-20T19:01:04.889Z,82.70
2022-10-20T19:03:32.098Z,82.70
2022-10-20T19:06:00.165Z,82.70
2022-10-20T19:08:27.017Z,82.70
2022-10-20T19:10:53.845Z,82.70
2022-10-20T19:13:20.544Z,82.70
2022-10-20T19:15:47.342Z,82.80
2022-10-20T19:18:14.126Z,82.80
2022-10-20T19:20:40.924Z,82.80
2022-10-20T19:23:07.729Z,82.90
2022-10-20T19:25:34.576Z,82.90
2022-10-20T19:28:01.310Z,82.90
2022-10-20T19:30:28.005Z,82.90
2022-10-20T19:32:55.054Z,82.90
2022-10-20T19:35:22.096Z,82.90
2022-10-20T19:37:48.860Z,82.90
2022-10-20T19:40:15.729Z,83.00
2022-10-20T19:42:42.482Z,83.00
2022-10-20T19:45:09.234Z,83.10
2022-10-20T19:47:35.974Z,83.20
2022-10-20T19:50:02.844Z,83.20
2022-10-20T19:52:29.612Z,83.20
2022-10-20T19:54:56.453Z,83.20
2022-10-20T19:57:23.216Z,83.20
2022-10-20T19:59:50.079Z,83.20
2022-10-20T20:02:16.856Z,83.20
2022-10-20T20:04:43.807Z,83.20
2022-10-20T20:07:10.613Z,83.10
2022-10-20T20:09:37.438Z,83.10
2022-10-20T20:12:04.290Z,83.00
2022-10-20T20:14:31.303Z,83.10
2022-10-20T20:17:00.887Z,83.20
2022-10-20T20:19:27.666Z,83.20
2022-10-20T20:21:54.524Z,83.10
2022-10-20T20:24:21.239Z,83.20
2022-10-20T20:26:48.050Z,83.20
2022-10-20T20:29:14.848Z,83.10
2022-10-20T20:31:41.551Z,83.10
2022-10-20T20:34:08.357Z,83.10
2022-10-20T20:36:35.122Z,83.10
2022-10-20T20:39:02.217Z,83.10
2022-10-20T20:41:30.889Z,83.10
2022-10-20T20:43:58.340Z,83.10
2022-10-20T20:46:28.867Z,83.10
2022-10-20T20:48:55.651Z,83.10
2022-10-20T20:51:22.387Z,83.10
2022-10-20T20:53:49.100Z,82.90
2022-10-20T20:56:16.983Z,82.90
2022-10-20T20:58:49.028Z,82.90
2022-10-20T21:01:17.043Z,82.90
2022-10-20T21:03:44.123Z,82.90
2022-10-20T21:06:12.054Z,82.90
2022-10-20T21:08:39.949Z,83.00
2022-10-20T21:11:17.224Z,83.00
2022-10-20T21:13:44.570Z,83.00
2022-10-20T21:16:25.758Z,83.00
2022-10-20T21:18:53.492Z,83.00
2022-10-20T21:21:43.735Z,83.00
2022-10-20T21:24:11.038Z,83.00
2022-10-20T21:26:37.918Z,83.20
2022-10-20T21:29:04.729Z,83.10
2022-10-20T21:31:31.719Z,83.20
2022-10-20T21:33:59.506Z,83.20
2022-10-20T21:36:27.382Z,83.20
2022-10-20T21:38:54.557Z,83.30
2022-10-20T21:41:22.966Z,83.30
2022-10-20T21:43:51.254Z,83.20
2022-10-20T21:46:24.128Z,83.20
2022-10-20T21:48:51.974Z,83.30
2022-10-20T21:51:20.366Z,83.30
2022-10-20T21:53:47.552Z,83.30
2022-10-20T21:56:14.538Z,83.30
2022-10-20T21:58:42.704Z,83.30
2022-10-20T22:01:09.545Z,83.30
2022-10-20T22:03:36.904Z,83.30
2022-10-20T22:06:03.963Z,83.40
2022-10-20T22:08:31.086Z,83.40
2022-10-20T22:11:01.736Z,83.40
2022-10-20T22:13:28.455Z,83.30
2022-10-20T22:15:55.145Z,83.30
2022-10-20T22:18:21.910Z,83.30
2022-10-20T22:20:48.630Z,83.20
2022-10-20T22:23:15.309Z,83.20
2022-10-20T22:25:42.011Z,83.20
2022-10-20T22:28:08.664Z,83.20
2022-10-20T22:30:35.375Z,83.20
2022-10-20T22:33:02.485Z,83.10
2022-10-20T22:35:29.178Z,83.20
2022-10-20T22:37:55.955Z,83.20
2022-10-20T22:40:22.665Z,83.20
2022-10-20T22:42:49.344Z,83.20
2022-10-20T22:45:16.129Z,83.20
2022-10-20T22:47:42.818Z,83.20
2022-10-20T22:50:09.741Z,83.10
2022-10-20T22:52:36.747Z,83.20
2022-10-20T22:55:03.852Z,83.20
2022-10-20T22:57:30.585Z,83.40
2022-10-20T22:59:57.419Z,84.20
2022-10-20T23:02:24.119Z,84.90
2022-10-20T23:04:50.814Z,85.50
2022-10-20T23:07:17.499Z,85.80
2022-10-20T23:09:44.170Z,86.20
2022-10-20T23:12:10.902Z,86.60
2022-10-20T23:14:37.606Z,86.90
2022-10-20T23:17:04.325Z,87.30
2022-10-20T23:19:31.408Z,87.60
2022-10-20T23:21:58.103Z,87.90
2022-10-20T23:24:24.900Z,88.20
2022-10-20T23:26:51.723Z,88.50
2022-10-20T23:29:18.456Z,88.60
2022-10-20T23:31:45.246Z,88.80
2022-10-20T23:34:12.048Z,88.80
2022-10-20T23:36:39.268Z,88.80
2022-10-20T23:39:06.294Z,88.80
2022-10-20T23:41:33.024Z,88.70
2022-10-20T23:43:59.773Z,88.60
2022-10-20T23:46:27.944Z,88.60
2022-10-20T23:48:54.639Z,88.60
2022-10-20T23:51:21.326Z,88.60
2022-10-20T23:53:48.059Z,88.50
2022-10-20T23:56:14.758Z,88.40
2022-10-20T23:58:41.594Z,88.30
